Time;durP1;ratioP1;P1;durP2;ratioP2;P2;SDS_P1;SDS_P2;PMS_P1;PMS_P2;Temp;Humidity;BMP_temperature;BMP_pressure;BME280_temperature;BME280_humidity;BME280_pressure;Samples;Min_cycle;Max_cycle;Signal;HPM_P1;HPM_P2
2023/08/23 00:01:20;;;;;;;17.30;8.32;;;;;;;-145.68;100.00;73341.91;10502900;28;20187;-78
2023/08/23 00:06:21;;;;;;;11.88;8.65;;;;;;;-145.68;100.00;73387.88;10537005;28;20273;-78
2023/08/23 00:11:21;;;;;;;13.18;7.85;;;;;;;-145.68;100.00;73377.88;10536975;28;20218;-79
2023/08/23 00:16:22;;;;;;;11.98;7.85;;;;;;;-145.68;100.00;73387.88;10535920;28;20190;-78
2023/08/23 00:21:22;;;;;;;9.20;7.28;;;;;;;-145.68;100.00;73417.84;10518335;28;20186;-78
2023/08/23 00:26:22;;;;;;;10.60;8.18;;;;;;;-145.68;100.00;73437.84;10535776;28;20212;-79
2023/08/23 00:31:23;;;;;;;14.93;9.07;;;;;;;-145.68;100.00;73451.81;10535503;28;20210;-79
2023/08/23 00:36:23;;;;;;;11.18;8.52;;;;;;;-145.68;100.00;73459.81;10500641;28;20194;-78
2023/08/23 00:41:24;;;;;;;12.77;9.38;;;;;;;-145.68;100.00;73481.81;10548623;28;20179;-78
2023/08/23 00:46:24;;;;;;;11.63;8.63;;;;;;;-145.68;100.00;73495.78;10516233;28;20235;-79
2023/08/23 00:51:25;;;;;;;11.63;8.68;;;;;;;-145.68;100.00;73487.81;10449774;28;20230;-79
2023/08/23 00:56:26;;;;;;;14.90;9.07;;;;;;;-145.68;100.00;73475.81;10433448;28;20188;-79
2023/08/23 01:01:26;;;;;;;10.75;8.10;;;;;;;-145.68;100.00;73471.81;10432649;28;20175;-79
2023/08/23 01:06:54;;;;;;;13.63;8.55;;;;;;;-145.68;100.00;73463.81;10433036;28;20229;-78
2023/08/23 01:12:19;;;;;;;14.68;8.20;;;;;;;-145.68;100.00;73461.81;10420949;28;20326;-78
2023/08/23 01:17:20;;;;;;;12.77;7.60;;;;;;;-145.68;100.00;73443.84;10432919;28;20711;-79
2023/08/23 01:22:22;;;;;;;12.10;7.03;;;;;;;-145.68;100.00;73441.81;10432903;28;20190;-78
2023/08/23 01:27:22;;;;;;;12.70;8.45;;;;;;;-145.68;100.00;73439.84;10450161;28;20220;-79
2023/08/23 01:32:28;;;;;;;13.68;7.45;;;;;;;-145.68;100.00;73451.81;10432362;28;20624;-79
2023/08/23 01:37:29;;;;;;;10.77;6.72;;;;;;;-145.68;100.00;73451.81;10431843;28;20195;-79
2023/08/23 01:42:31;;;;;;;17.63;7.18;;;;;;;-145.68;100.00;73451.81;10432266;28;20180;-79
2023/08/23 01:47:31;;;;;;;13.32;7.18;;;;;;;-145.68;100.00;73463.81;10432063;28;20692;-79
2023/08/23 01:52:32;;;;;;;9.43;6.43;;;;;;;-145.68;100.00;73451.81;10454737;28;20299;-79
2023/08/23 01:57:32;;;;;;;14.13;6.88;;;;;;;-145.68;100.00;73463.81;10458283;28;20185;-78
2023/08/23 02:02:32;;;;;;;9.18;6.47;;;;;;;-145.68;100.00;73457.81;10440480;28;20211;-79
2023/08/23 02:07:33;;;;;;;9.93;6.50;;;;;;;-145.68;100.00;73467.81;10457775;28;20191;-78
2023/08/23 02:12:33;;;;;;;9.90;6.43;;;;;;;-145.68;100.00;73451.81;10440436;28;20218;-79
2023/08/23 02:17:34;;;;;;;11.88;6.10;;;;;;;-145.68;100.00;73473.81;10439488;28;20714;-79
2023/08/23 02:22:34;;;;;;;10.85;6.50;;;;;;;-145.68;100.00;73475.81;10458011;28;20180;-79
2023/08/23 02:27:35;;;;;;;8.52;6.25;;;;;;;-145.68;100.00;73471.81;10456746;28;20191;-79
2023/08/23 02:32:35;;;;;;;11.73;6.05;;;;;;;-145.68;100.00;73477.81;10439654;28;20224;-79
2023/08/23 02:37:36;;;;;;;14.02;5.88;;;;;;;-145.68;100.00;73485.81;10438869;28;20196;-78
2023/08/23 02:42:36;;;;;;;8.65;6.15;;;;;;;-145.68;100.00;73481.81;10438979;28;20246;-78
2023/08/23 02:47:37;;;;;;;10.50;6.05;;;;;;;-145.68;100.00;73491.81;10438306;28;20239;-79
2023/08/23 02:52:38;;;;;;;8.85;6.43;;;;;;;-145.68;100.00;73497.78;10438509;28;20219;-79
2023/08/23 02:57:38;;;;;;;12.38;6.55;;;;;;;-145.68;100.00;73507.78;10456067;28;20652;-78
2023/08/23 03:02:39;;;;;;;7.53;5.78;;;;;;;-145.68;100.00;73507.78;10476158;28;20236;-80
2023/08/23 03:07:39;;;;;;;8.80;5.78;;;;;;;-145.68;100.00;73501.78;10491632;28;20187;-79
2023/08/23 03:12:40;;;;;;;9.00;5.78;;;;;;;-145.68;100.00;73517.78;10471643;28;20211;-78
2023/08/23 03:17:40;;;;;;;8.38;6.55;;;;;;;-145.68;100.00;73527.78;10471531;28;20815;-79
2023/08/23 03:22:41;;;;;;;6.32;4.93;;;;;;;-145.68;100.00;73519.78;10471646;28;20179;-79
2023/08/23 03:27:42;;;;;;;12.27;6.15;;;;;;;-145.68;100.00;73535.78;10489553;28;20180;-79
2023/08/23 03:32:43;;;;;;;8.75;6.57;;;;;;;-145.68;100.00;73549.75;10471295;28;20218;-78
2023/08/23 03:37:43;;;;;;;8.50;6.13;;;;;;;-145.68;100.00;73551.75;10488051;28;20626;-79
2023/08/23 03:42:44;;;;;;;7.97;5.90;;;;;;;-145.68;100.00;73557.75;10470871;28;20214;-79
2023/08/23 03:47:44;;;;;;;9.23;5.90;;;;;;;-145.68;100.00;73591.75;10469610;28;20651;-80
2023/08/23 03:52:45;;;;;;;10.05;6.03;;;;;;;-145.68;100.00;73597.75;10488351;28;20219;-79
2023/08/23 03:57:46;;;;;;;15.30;5.95;;;;;;;-145.68;100.00;73607.72;10453004;28;20198;-78
2023/08/23 04:02:46;;;;;;;13.13;6.00;;;;;;;-145.68;100.00;73599.72;10491556;28;20195;-79
2023/08/23 04:07:47;;;;;;;8.75;6.03;;;;;;;-145.68;100.00;73599.72;10476468;28;20194;-78
2023/08/23 04:12:47;;;;;;;8.85;6.05;;;;;;;-145.68;100.00;73613.72;10494264;28;20615;-79
2023/08/23 04:17:48;;;;;;;9.32;6.10;;;;;;;-145.68;100.00;73629.72;10476353;28;20705;-78
2023/08/23 04:22:48;;;;;;;8.00;5.55;;;;;;;-145.68;100.00;73627.72;10459659;28;20183;-78
2023/08/23 04:27:49;;;;;;;11.05;5.80;;;;;;;-145.68;100.00;73635.72;10499227;28;20593;-79
2023/08/23 04:32:50;;;;;;;7.60;5.32;;;;;;;-145.68;100.00;73641.72;10517394;28;20660;-78
2023/08/23 04:37:50;;;;;;;16.20;5.60;;;;;;;-145.68;100.00;73639.72;10517376;28;20596;-79
2023/08/23 04:42:51;;;;;;;8.95;5.38;;;;;;;-145.68;100.00;73639.72;10516931;28;20190;-79
2023/08/23 04:47:52;;;;;;;12.70;5.82;;;;;;;-145.68;100.00;73643.72;10499774;28;20241;-78
2023/08/23 04:52:53;;;;;;;11.75;5.22;;;;;;;-145.68;100.00;73631.72;10516835;28;20229;-77
2023/08/23 04:57:54;;;;;;;8.48;5.50;;;;;;;-145.68;100.00;73631.72;10516180;28;20193;-78
2023/08/23 05:02:54;;;;;;;10.70;5.60;;;;;;;-145.68;100.00;73621.72;10510280;28;20194;-78
2023/08/23 05:07:55;;;;;;;10.07;5.47;;;;;;;-145.68;100.00;73625.72;10474466;28;20191;-78
2023/08/23 05:12:57;;;;;;;9.85;6.35;;;;;;;-145.68;100.00;73607.72;10474728;28;20214;-79
2023/08/23 05:17:58;;;;;;;9.98;5.80;;;;;;;-145.68;100.00;73591.75;10473836;28;20195;-78
2023/08/23 05:22:59;;;;;;;9.60;5.03;;;;;;;-145.68;100.00;73567.75;10474234;28;20187;-81
2023/08/23 05:27:59;;;;;;;10.43;4.80;;;;;;;-145.68;100.00;73545.78;10472782;28;20202;-81
2023/08/23 05:33:03;;;;;;;12.63;5.40;;;;;;;-145.68;100.00;73539.78;10474474;28;20710;-80
2023/08/23 05:38:04;;;;;;;9.13;4.85;;;;;;;-145.68;100.00;73491.81;10473983;28;20187;-80
2023/08/23 05:43:09;;;;;;;10.25;4.80;;;;;;;-145.68;100.00;73457.81;10458007;28;20612;-80
2023/08/23 05:48:14;;;;;;;6.93;4.95;;;;;;;-145.68;100.00;73399.84;10468922;28;20235;-80
2023/08/23 05:53:21;;;;;;;8.48;4.60;;;;;;;-145.68;100.00;73365.88;10474384;28;20199;-80
2023/08/23 05:58:21;;;;;;;5.97;4.30;;;;;;;-145.68;98.88;73277.94;10491263;28;20214;-80
2023/08/23 06:03:22;;;;;;;7.70;4.22;;;;;;;-145.68;88.40;73233.97;10487372;28;20213;-77
2023/08/23 06:08:23;;;;;;;7.50;4.53;;;;;;;-145.68;85.36;73144.03;10477807;28;20270;-80
2023/08/23 06:13:24;;;;;;;11.35;4.53;;;;;;;-145.68;79.58;73168.00;10498190;28;20184;-81
2023/08/23 06:18:25;;;;;;;5.65;3.45;;;;;;;-145.68;78.58;73048.09;10473585;28;20593;-80
2023/08/23 06:23:29;;;;;;;8.40;3.67;;;;;;;-145.68;70.46;73036.09;10490866;28;20198;-81
2023/08/23 06:29:09;;;;;;;7.15;3.85;;;;;;;-145.68;65.16;72812.28;10490568;28;20223;-81
2023/08/23 06:34:37;;;;;;;11.10;3.22;;;;;;;-145.68;60.04;72680.38;10472528;28;20196;-81
2023/08/23 06:39:41;;;;;;;5.43;3.30;;;;;;;-145.68;56.77;72606.44;10479343;28;20317;-82
2023/08/23 06:45:02;;;;;;;8.25;3.25;;;;;;;-145.68;55.42;72584.44;10480354;28;20326;-82
2023/08/23 06:50:06;;;;;;;7.60;3.55;;;;;;;-145.68;52.10;72444.56;10446042;28;20230;-83
2023/08/23 06:55:28;;;;;;;4.35;2.58;;;;;;;-145.68;49.69;72464.56;10440191;28;20674;-82
2023/08/23 07:00:29;;;;;;;5.03;2.50;;;;;;;-145.68;48.20;72480.53;10444843;28;20552;-79
2023/08/23 07:05:33;;;;;;;6.80;2.67;;;;;;;-145.68;47.34;72460.56;10436352;28;20191;-78
2023/08/23 07:10:33;;;;;;;4.68;2.17;;;;;;;-145.68;46.47;72422.59;10433755;28;20204;-78
2023/08/23 07:15:35;;;;;;;7.00;2.38;;;;;;;-145.68;44.48;72372.63;10452451;28;20191;-78
2023/08/23 07:20:36;;;;;;;3.92;2.03;;;;;;;-145.68;45.54;72374.63;10453353;28;20189;-78
2023/08/23 07:25:37;;;;;;;7.05;2.50;;;;;;;-145.68;46.85;72424.59;10452626;28;20199;-77
2023/08/23 07:30:38;;;;;;;5.85;2.08;;;;;;;-145.68;45.20;72290.72;10449383;28;20215;-80
2023/08/23 07:35:38;;;;;;;2.10;1.77;;;;;;;-145.68;44.40;72188.81;10452862;28;20207;-81
2023/08/23 07:40:39;;;;;;;5.35;2.22;;;;;;;-145.68;42.90;72146.84;10432743;28;20642;-79
2023/08/23 07:45:39;;;;;;;8.55;2.38;;;;;;;-145.68;44.34;72294.72;10458455;28;20230;-82
2023/08/23 07:50:42;;;;;;;5.03;1.75;;;;;;;-145.68;41.47;72060.94;10474765;28;20276;-81
2023/08/23 07:55:42;;;;;;;10.18;2.47;;;;;;;-145.68;41.74;72122.88;10475195;28;20609;-80
2023/08/23 08:00:44;;;;;;;7.57;2.53;;;;;;;-145.68;42.60;72230.75;10493487;28;20241;-80
2023/08/23 08:05:46;;;;;;;7.55;2.60;;;;;;;-145.68;40.91;72080.91;10493794;28;20336;-79
2023/08/23 08:10:49;;;;;;;8.82;2.30;;;;;;;-145.68;40.95;72062.91;10494300;28;20218;-80
2023/08/23 08:15:49;;;;;;;7.43;2.42;;;;;;;-145.68;43.23;72222.78;10494503;28;20218;-80
2023/08/23 08:20:50;;;;;;;8.07;2.50;;;;;;;-145.68;39.85;71965.00;10494060;28;20179;-80
2023/08/23 08:25:50;;;;;;;8.98;2.30;;;;;;;-145.68;39.13;71943.03;10475801;28;20218;-80
2023/08/23 08:30:51;;;;;;;5.45;2.65;;;;;;;-145.68;40.89;72072.91;10492860;28;20230;-79
2023/08/23 08:35:51;;;;;;;7.53;2.33;;;;;;;-145.68;41.81;72172.81;10501833;28;20715;-77
2023/08/23 08:40:52;;;;;;;4.40;2.30;;;;;;;-145.68;42.32;72182.81;10531896;28;20684;-80
2023/08/23 08:45:52;;;;;;;6.57;2.53;;;;;;;-145.68;41.41;72156.84;10532768;28;20230;-79
2023/08/23 08:50:53;;;;;;;7.28;2.45;;;;;;;-145.68;38.38;71887.09;10533975;28;20222;-79
2023/08/23 08:55:54;;;;;;;7.43;2.58;;;;;;;-145.68;40.41;71981.00;10515755;28;20251;-81
2023/08/23 09:00:58;;;;;;;4.70;2.17;;;;;;;-145.68;38.60;71859.13;10516003;28;20642;-80
2023/08/23 09:05:59;;;;;;;3.95;2.35;;;;;;;-145.68;40.25;72046.94;10515311;28;20607;-79
2023/08/23 09:10:59;;;;;;;6.22;2.60;;;;;;;-145.68;40.33;72012.97;10532323;28;20210;-80
2023/08/23 09:16:00;;;;;;;4.57;2.67;;;;;;;-145.68;37.88;71917.06;10533817;28;20277;-79
2023/08/23 09:21:00;;;;;;;4.32;2.38;;;;;;;-145.68;40.83;72098.88;10498298;28;20183;-80
2023/08/23 09:26:01;;;;;;;5.90;2.80;;;;;;;-145.68;38.24;71909.06;10533925;28;20190;-80
2023/08/23 09:31:01;;;;;;;6.20;2.58;;;;;;;-145.68;38.27;71977.00;10514347;28;20233;-80
2023/08/23 09:36:02;;;;;;;6.18;2.78;;;;;;;-145.68;37.68;71857.13;10533154;28;20666;-79
2023/08/23 09:41:02;;;;;;;6.03;2.58;;;;;;;-145.68;37.74;71883.09;10531558;28;20239;-80
2023/08/23 09:46:04;;;;;;;6.15;3.05;;;;;;;-145.68;38.06;71955.03;10472123;28;20272;-79
2023/08/23 09:51:04;;;;;;;4.70;2.33;;;;;;;-145.68;38.43;71859.13;10489839;28;20559;-80
2023/08/23 09:56:05;;;;;;;7.20;2.42;;;;;;;-145.68;36.70;71747.25;10471852;28;20232;-79
2023/08/23 10:01:07;;;;;;;6.97;2.38;;;;;;;-145.68;35.56;71593.41;10470152;28;20179;-80
2023/08/23 10:06:08;;;;;;;6.00;2.65;;;;;;;-145.68;33.99;71579.41;10469344;28;20217;-80
2023/08/23 10:11:09;;;;;;;7.75;2.78;;;;;;;-145.68;37.37;71793.19;10471748;28;20245;-80
2023/08/23 10:16:12;;;;;;;6.78;2.72;;;;;;;-145.68;41.26;72290.72;10479101;28;20244;-79
2023/08/23 10:21:12;;;;;;;3.95;2.47;;;;;;;-145.68;37.45;71909.06;10481145;28;20184;-78
2023/08/23 10:26:20;;;;;;;6.70;2.60;;;;;;;-145.68;37.30;71769.22;10497322;28;20195;-79
2023/08/23 10:31:24;;;;;;;4.22;2.20;;;;;;;-145.68;35.04;71591.41;10496198;28;20222;-80
2023/08/23 10:36:29;;;;;;;4.78;2.45;;;;;;;-145.68;34.52;71547.44;10478314;28;20248;-79
2023/08/23 10:41:30;;;;;;;5.10;2.25;;;;;;;-145.68;35.14;71659.34;10497196;28;20184;-80
2023/08/23 10:46:43;;;;;;;7.13;2.58;;;;;;;-145.68;34.83;71617.38;10489369;28;20261;-80
2023/08/23 10:51:44;;;;;;;7.63;2.33;;;;;;;-145.68;36.69;71917.06;10519761;28;20219;-80
2023/08/23 10:56:44;;;;;;;4.13;2.85;;;;;;;-145.68;36.54;71929.06;10537538;28;20194;-79
2023/08/23 11:01:45;;;;;;;4.82;2.65;;;;;;;-145.68;36.90;71717.28;10519732;28;20190;-83
2023/08/23 11:06:46;;;;;;;6.53;2.55;;;;;;;-145.68;34.60;71625.38;10518772;28;20187;-80
2023/08/23 11:11:46;;;;;;;4.82;2.30;;;;;;;-145.68;37.94;71851.13;10536805;28;20218;-80
2023/08/23 11:16:47;;;;;;;7.15;2.78;;;;;;;-145.68;35.27;71705.28;10537076;28;20195;-80
2023/08/23 11:21:47;;;;;;;5.68;2.50;;;;;;;-145.68;36.73;71831.16;10501088;28;20194;-79
2023/08/23 11:26:48;;;;;;;5.95;2.70;;;;;;;-145.68;33.55;71555.44;10534494;28;20214;-80
2023/08/23 11:31:53;;;;;;;7.43;2.45;;;;;;;-145.68;32.25;71451.56;10536642;28;20218;-81
2023/08/23 11:36:53;;;;;;;9.32;2.65;;;;;;;-145.68;34.68;71549.44;10500700;28;20232;-79
2023/08/23 11:41:53;;;;;;;8.73;2.47;;;;;;;-145.68;35.47;71573.41;10473932;28;20651;-80
2023/08/23 11:46:56;;;;;;;8.65;2.95;;;;;;;-145.68;33.42;71509.50;10493857;28;20710;-80
2023/08/23 11:51:58;;;;;;;9.02;2.80;;;;;;;-145.68;34.44;71689.31;10516506;28;20222;-79
2023/08/23 11:56:59;;;;;;;3.30;2.40;;;;;;;-145.68;34.40;71585.41;10516169;28;20273;-80
2023/08/23 12:01:59;;;;;;;4.30;2.58;;;;;;;-145.68;32.95;71413.59;10489677;28;20191;-79
2023/08/23 12:07:00;;;;;;;4.30;2.28;;;;;;;-145.68;32.13;71307.72;10457901;28;20191;-80
2023/08/23 12:12:03;;;;;;;3.78;2.80;;;;;;;-145.68;32.59;71425.59;10494387;28;20215;-81
2023/08/23 12:17:03;;;;;;;4.72;2.50;;;;;;;-145.68;31.88;71341.69;10493636;28;20248;-79
2023/08/23 12:22:07;;;;;;;4.53;2.40;;;;;;;-145.68;34.32;71553.44;10499379;28;20243;-82
2023/08/23 12:27:07;;;;;;;5.97;2.38;;;;;;;-145.68;33.06;71469.53;10535318;28;20194;-81
2023/08/23 12:32:11;;;;;;;6.53;2.67;;;;;;;-145.68;32.65;71409.59;10517604;28;20222;-82
2023/08/23 12:37:12;;;;;;;7.50;2.65;;;;;;;-145.68;31.23;71305.72;10534605;28;20662;-81
2023/08/23 12:42:12;;;;;;;4.53;2.28;;;;;;;-145.68;29.91;71231.81;10534308;28;20197;-81
2023/08/23 12:47:13;;;;;;;4.93;2.40;;;;;;;-145.68;29.80;71201.84;10534407;28;20238;-81
2023/08/23 12:52:13;;;;;;;6.40;2.65;;;;;;;-145.68;31.42;71449.56;10530626;28;20215;-80
2023/08/23 12:57:14;;;;;;;3.20;2.35;;;;;;;-145.68;31.32;71379.63;10491072;28;20266;-81
2023/08/23 13:02:15;;;;;;;4.72;2.50;;;;;;;-145.68;32.92;71547.44;10491134;28;20179;-82
2023/08/23 13:07:17;;;;;;;4.38;2.70;;;;;;;-145.68;33.92;71655.34;10439393;28;20337;-82
2023/08/23 13:12:17;;;;;;;3.60;2.20;;;;;;;-145.68;31.68;71261.78;10442129;28;20768;-80
2023/08/23 13:17:18;;;;;;;4.97;2.58;;;;;;;-145.68;31.67;71463.53;10490122;28;20195;-81
2023/08/23 13:22:18;;;;;;;3.15;2.33;;;;;;;-145.68;31.73;71539.47;10479263;28;20191;-81
2023/08/23 13:27:19;;;;;;;6.57;2.28;;;;;;;-145.68;31.67;71531.47;10491423;28;20191;-81
2023/08/23 13:32:19;;;;;;;4.63;2.35;;;;;;;-145.68;31.55;71281.75;10499886;28;20210;-80
2023/08/23 13:37:38;;;;;;;7.10;2.50;;;;;;;-145.68;30.55;71173.88;10448655;28;20194;-81
2023/08/23 13:42:38;;;;;;;4.53;1.92;;;;;;;-145.68;28.96;71064.00;10471610;28;20712;-81
2023/08/23 13:47:39;;;;;;;3.20;2.08;;;;;;;-145.68;27.93;70924.19;10503638;28;20376;-82
2023/08/23 13:52:39;;;;;;;5.03;2.10;;;;;;;-145.68;28.11;71010.06;10490016;28;20215;-82
2023/08/23 13:57:42;;;;;;;3.85;1.70;;;;;;;-145.68;27.82;70966.13;10505589;28;20194;-82
2023/08/23 14:02:45;;;;;;;5.57;2.20;;;;;;;-145.68;27.47;70886.22;10490211;28;20645;-82
2023/08/23 14:07:46;;;;;;;8.80;2.05;;;;;;;-145.68;29.59;71335.69;10490161;28;20247;-80
2023/08/23 14:12:46;;;;;;;3.63;2.17;;;;;;;-145.68;32.21;71677.31;10470053;28;20211;-81
2023/08/23 14:17:47;;;;;;;3.92;2.20;;;;;;;-145.68;30.21;71263.78;10470461;28;20183;-82
2023/08/23 14:22:47;;;;;;;3.92;2.17;;;;;;;-145.68;28.67;70970.13;10471281;28;20186;-80
2023/08/23 14:27:49;;;;;;;4.97;1.95;;;;;;;-145.68;28.11;70866.25;10488871;28;20377;-81
2023/08/23 14:32:50;;;;;;;6.25;2.10;;;;;;;-145.68;28.75;71042.03;10517260;28;20276;-81
2023/08/23 14:37:50;;;;;;;2.90;1.85;;;;;;;-145.68;26.68;70766.38;10517591;28;20211;-81
2023/08/23 14:42:51;;;;;;;5.85;2.13;;;;;;;-145.68;27.78;70930.19;10471251;28;20262;-81
2023/08/23 14:47:51;;;;;;;4.28;2.03;;;;;;;-145.68;28.58;71153.91;10493467;28;20226;-82
2023/08/23 14:52:52;;;;;;;6.65;2.08;;;;;;;-145.68;27.68;70788.34;10513908;28;20214;-81
2023/08/23 14:57:52;;;;;;;4.88;2.00;;;;;;;-145.68;29.23;71091.97;10509003;28;20187;-82
2023/08/23 15:02:54;;;;;;;6.57;2.00;;;;;;;-145.68;29.52;71078.00;10481119;28;20274;-82
2023/08/23 15:07:55;;;;;;;2.88;2.00;;;;;;;-145.68;27.37;70830.28;10496130;28;20252;-82
2023/08/23 15:12:55;;;;;;;3.72;1.77;;;;;;;-145.68;26.68;70664.50;10494821;28;20744;-80
2023/08/23 15:17:56;;;;;;;5.00;1.85;;;;;;;-145.68;26.16;70670.50;10495077;28;20240;-80
2023/08/23 15:22:56;;;;;;;6.03;1.90;;;;;;;-145.68;28.74;71074.00;10476489;28;20214;-80
2023/08/23 15:27:57;;;;;;;4.88;1.98;;;;;;;-145.68;26.29;70736.41;10493389;28;20240;-81
2023/08/23 15:32:57;;;;;;;4.15;1.80;;;;;;;-145.68;26.61;70782.34;10495014;28;20211;-80
2023/08/23 15:37:57;;;;;;;3.90;1.98;;;;;;;-145.68;25.98;70760.38;10480891;28;20257;-80
2023/08/23 15:42:58;;;;;;;6.65;2.25;;;;;;;-145.68;25.60;70638.53;10505085;28;20194;-82
2023/08/23 15:47:58;;;;;;;6.05;2.35;;;;;;;-145.68;27.88;70954.16;10494056;28;20226;-81
2023/08/23 15:52:59;;;;;;;5.57;1.90;;;;;;;-145.68;27.57;71008.06;10492777;28;20214;-80
2023/08/23 15:58:00;;;;;;;6.15;2.15;;;;;;;-145.68;28.16;71078.00;10494438;28;20193;-80
2023/08/23 16:03:00;;;;;;;9.48;1.80;;;;;;;-145.68;28.19;70980.13;10494612;28;20186;-80
2023/08/23 16:08:01;;;;;;;6.18;2.03;;;;;;;-145.68;29.11;71089.97;10492457;28;20186;-79
2023/08/23 16:13:01;;;;;;;6.20;2.10;;;;;;;-145.68;30.66;71275.75;10494294;28;20225;-79
2023/08/23 16:18:02;;;;;;;6.28;1.92;;;;;;;-145.68;30.40;71273.75;10492833;28;20264;-79
2023/08/23 16:23:02;;;;;;;5.57;2.00;;;;;;;-145.68;31.88;71473.53;10476352;28;20547;-79
2023/08/23 16:28:04;;;;;;;7.57;2.10;;;;;;;-145.68;32.40;71451.56;10494128;28;20187;-79
2023/08/23 16:33:06;;;;;;;9.00;2.20;;;;;;;-145.68;31.93;71387.63;10476104;28;20215;-79
2023/08/23 16:38:07;;;;;;;9.38;2.60;;;;;;;-145.68;33.92;71635.34;10493587;28;20202;-80
2023/08/23 16:43:09;;;;;;;6.97;2.25;;;;;;;-145.68;35.93;71809.16;10493453;28;20187;-79
2023/08/23 16:48:09;;;;;;;7.28;1.80;;;;;;;-145.68;35.85;71837.16;10492765;28;20613;-78
2023/08/23 16:53:09;;;;;;;4.80;1.77;;;;;;;-145.68;36.14;71825.16;10493533;28;20226;-79
2023/08/23 16:58:10;;;;;;;5.32;2.53;;;;;;;-145.68;36.95;71961.03;10494086;28;20183;-79
2023/08/23 17:03:10;;;;;;;5.40;2.10;;;;;;;-145.68;37.53;72032.94;10493269;28;20217;-80
2023/08/23 17:08:11;;;;;;;8.70;2.38;;;;;;;-145.68;39.49;72154.84;10492056;28;20202;-79
2023/08/23 17:13:11;;;;;;;4.13;1.70;;;;;;;-145.68;39.44;72162.81;10492676;28;20283;-79
2023/08/23 17:18:11;;;;;;;8.13;2.17;;;;;;;-145.68;39.51;72202.78;10474282;28;20183;-78
2023/08/23 17:23:16;;;;;;;11.07;2.35;;;;;;;-145.68;41.16;72294.72;10492842;28;20268;-78
2023/08/23 17:28:17;;;;;;;2.75;1.67;;;;;;;-145.68;41.12;72358.66;10492183;28;20563;-80
2023/08/23 17:33:18;;;;;;;6.38;1.88;;;;;;;-145.68;41.80;72378.63;10491798;28;20223;-79
2023/08/23 17:38:19;;;;;;;5.80;1.90;;;;;;;-145.68;42.12;72410.59;10474105;28;20191;-80
2023/08/23 17:43:19;;;;;;;6.65;2.08;;;;;;;-145.68;42.62;72480.53;10491848;28;20583;-80
2023/08/23 17:48:20;;;;;;;5.40;1.67;;;;;;;-145.68;43.15;72512.50;10491731;28;20231;-80
2023/08/23 17:53:20;;;;;;;5.65;1.95;;;;;;;-145.68;44.57;72580.47;10491472;28;20271;-80
2023/08/23 17:58:21;;;;;;;4.85;1.63;;;;;;;-145.68;45.78;72620.41;10491373;28;20240;-80
2023/08/23 18:03:21;;;;;;;3.83;1.85;;;;;;;-145.68;46.89;72690.38;10473475;28;20195;-79
2023/08/23 18:08:22;;;;;;;4.30;1.75;;;;;;;-145.68;48.22;72744.31;10473422;28;20555;-79
2023/08/23 18:13:22;;;;;;;5.10;1.80;;;;;;;-145.68;50.58;72880.22;10491612;28;20242;-80
2023/08/23 18:18:23;;;;;;;6.18;5.07;;;;;;;-145.68;53.74;73024.13;10490710;28;20253;-79
2023/08/23 18:23:23;;;;;;;8.15;2.70;;;;;;;-145.68;53.59;72988.13;10491146;28;20236;-79
2023/08/23 18:28:24;;;;;;;3.25;2.50;;;;;;;-145.68;53.74;72994.13;10490653;28;20202;-79
2023/08/23 18:33:26;;;;;;;36.85;21.45;;;;;;;-145.68;55.66;73070.06;10493404;28;20211;-80
2023/08/23 18:38:27;;;;;;;21.38;14.70;;;;;;;-145.68;57.65;73096.06;10498318;28;20318;-79
2023/08/23 18:43:29;;;;;;;9.80;4.38;;;;;;;-145.68;58.96;73136.03;10481069;28;20284;-80
2023/08/23 18:48:29;;;;;;;14.23;3.13;;;;;;;-145.68;59.16;73154.03;10497636;28;20344;-79
2023/08/23 18:53:29;;;;;;;13.20;3.00;;;;;;;-145.68;61.22;73182.00;10480071;28;20582;-78
2023/08/23 18:58:30;;;;;;;14.57;3.85;;;;;;;-145.68;62.15;73205.97;10497571;28;20198;-79
2023/08/23 19:03:30;;;;;;;22.42;3.50;;;;;;;-145.68;64.19;73235.97;10497762;28;20545;-79
2023/08/23 19:08:31;;;;;;;3.28;2.85;;;;;;;-145.68;65.66;73243.97;10461732;28;20188;-78
2023/08/23 19:13:31;;;;;;;6.50;3.25;;;;;;;-145.68;65.76;73233.97;10456434;28;20683;-79
2023/08/23 19:18:31;;;;;;;7.45;3.58;;;;;;;-145.68;66.23;73259.94;10437607;28;20202;-79
2023/08/23 19:23:32;;;;;;;9.98;3.90;;;;;;;-145.68;66.35;73253.94;10455492;28;20192;-79
2023/08/23 19:28:33;;;;;;;10.55;6.78;;;;;;;-145.68;66.89;73261.94;10455190;28;20203;-79
2023/08/23 19:33:34;;;;;;;9.63;4.63;;;;;;;-145.68;67.43;73279.94;10455015;28;20239;-78
2023/08/23 19:38:35;;;;;;;9.10;3.97;;;;;;;-145.68;68.14;73307.91;10437073;28;20567;-80
2023/08/23 19:43:35;;;;;;;10.15;4.53;;;;;;;-145.68;68.60;73303.91;10435968;28;20598;-79
2023/08/23 19:48:36;;;;;;;9.55;6.13;;;;;;;-145.68;68.99;73315.91;10454337;28;20688;-79
2023/08/23 19:53:37;;;;;;;6.32;4.28;;;;;;;-145.68;69.77;73335.91;10454366;28;20254;-79
2023/08/23 19:58:38;;;;;;;6.03;3.60;;;;;;;-145.68;70.73;73349.88;10454128;28;20549;-79
2023/08/23 20:03:38;;;;;;;5.97;4.47;;;;;;;-145.68;71.42;73371.88;10436537;28;20196;-79
2023/08/23 20:08:38;;;;;;;5.60;3.40;;;;;;;-145.68;72.07;73385.88;10453714;28;20260;-80
2023/08/23 20:13:39;;;;;;;10.18;3.85;;;;;;;-145.68;73.01;73397.84;10436082;28;20232;-79
2023/08/23 20:18:39;;;;;;;9.57;6.30;;;;;;;-145.68;73.58;73415.84;10482393;28;20198;-79
2023/08/23 20:23:40;;;;;;;5.35;4.05;;;;;;;-145.68;74.69;73427.84;10494774;28;20183;-78
2023/08/23 20:28:40;;;;;;;7.45;3.78;;;;;;;-145.68;75.35;73449.81;10475222;28;20241;-79
2023/08/23 20:33:42;;;;;;;3.45;3.15;;;;;;;-145.68;76.42;73449.81;10495211;28;20191;-78
2023/08/23 20:38:45;;;;;;;5.45;3.42;;;;;;;-145.68;77.65;73471.81;10493326;28;20191;-80
2023/08/23 20:43:46;;;;;;;10.82;3.95;;;;;;;-145.68;78.44;73485.81;10493388;28;20611;-79
2023/08/23 20:48:47;;;;;;;7.05;3.90;;;;;;;-145.68;79.01;73491.81;10493198;28;20231;-79
2023/08/23 20:53:48;;;;;;;6.05;4.13;;;;;;;-145.68;79.44;73507.78;10475088;28;20714;-80
2023/08/23 20:58:49;;;;;;;9.18;3.80;;;;;;;-145.68;80.28;73513.78;10492404;28;20232;-78
2023/08/23 21:03:49;;;;;;;5.65;4.15;;;;;;;-145.68;80.89;73523.78;10492667;28;20723;-78
2023/08/23 21:08:50;;;;;;;4.43;3.70;;;;;;;-145.68;82.01;73547.75;10457575;28;20187;-78
2023/08/23 21:13:50;;;;;;;5.43;3.78;;;;;;;-145.68;82.05;73539.78;10492622;28;20597;-80
2023/08/23 21:18:52;;;;;;;8.25;4.10;;;;;;;-145.68;82.81;73559.75;10469153;28;20207;-79
2023/08/23 21:23:53;;;;;;;4.97;3.72;;;;;;;-145.68;83.41;73561.75;10450972;28;20196;-78
2023/08/23 21:28:54;;;;;;;4.57;4.07;;;;;;;-145.68;83.90;73575.75;10432591;28;20192;-80
2023/08/23 21:33:55;;;;;;;4.78;4.03;;;;;;;-145.68;84.82;73581.75;10465910;28;20661;-80
2023/08/23 21:38:55;;;;;;;5.07;4.03;;;;;;;-145.68;85.79;73589.75;10450466;28;20230;-80
2023/08/23 21:43:55;;;;;;;9.20;4.13;;;;;;;-145.68;86.64;73607.72;10450240;28;20191;-79
2023/08/23 21:48:57;;;;;;;8.00;3.65;;;;;;;-145.68;86.69;73603.72;10450259;28;20262;-79
2023/08/23 21:53:57;;;;;;;5.03;3.78;;;;;;;-145.68;86.79;73603.72;10449777;28;20196;-79
2023/08/23 21:58:58;;;;;;;10.10;4.18;;;;;;;-145.68;87.99;73619.72;10450107;28;20268;-78
2023/08/23 22:03:58;;;;;;;10.27;3.97;;;;;;;-145.68;88.81;73629.72;10450200;28;20196;-79
2023/08/23 22:08:59;;;;;;;5.70;4.30;;;;;;;-145.68;90.02;73639.72;10468682;28;20188;-79
2023/08/23 22:13:59;;;;;;;7.15;4.40;;;;;;;-145.68;90.57;73641.72;10458518;28;20636;-78
2023/08/23 22:18:59;;;;;;;6.85;4.03;;;;;;;-145.68;90.64;73641.72;10457795;28;20184;-78
2023/08/23 22:24:00;;;;;;;7.07;4.43;;;;;;;-145.68;91.00;73645.72;10440457;28;20577;-79
2023/08/23 22:29:03;;;;;;;10.20;4.35;;;;;;;-145.68;91.36;73645.72;10439835;28;20191;-79
2023/08/23 22:34:03;;;;;;;7.88;4.10;;;;;;;-145.68;91.27;73651.72;10440229;28;20211;-78
2023/08/23 22:39:04;;;;;;;5.80;4.45;;;;;;;-145.68;91.97;73661.69;10457202;28;20196;-78